createdAt,value
2022-10-12T00:01:39.433Z,2.80
2022-10-12T00:04:26.258Z,5.03
2022-10-12T00:07:13.098Z,4.90
2022-10-12T00:09:59.955Z,5.53
2022-10-12T00:12:47.424Z,4.90
2022-10-12T00:15:36.742Z,4.67
2022-10-12T00:18:23.573Z,5.70
2022-10-12T00:21:12.539Z,5.70
2022-10-12T00:24:00.731Z,5.70
2022-10-12T00:26:49.591Z,5.53
2022-10-12T00:29:37.961Z,5.20
2022-10-12T00:32:24.848Z,4.97
2022-10-12T00:35:11.673Z,4.93
2022-10-12T00:37:58.491Z,4.27
2022-10-12T00:40:45.330Z,4.40
2022-10-12T00:43:35.188Z,4.17
2022-10-12T00:46:29.672Z,3.50
2022-10-12T00:49:19.783Z,4.10
2022-10-12T00:52:12.520Z,4.00
2022-10-12T00:55:00.784Z,3.93
2022-10-12T00:57:49.943Z,3.90
2022-10-12T01:00:37.817Z,3.77
2022-10-12T01:03:25.464Z,3.77
2022-10-12T01:06:12.368Z,3.00
2022-10-12T01:09:00.288Z,3.23
2022-10-12T01:11:47.524Z,2.87
2022-10-12T01:14:35.260Z,3.60
2022-10-12T01:17:33.242Z,2.80
2022-10-12T01:20:43.828Z,3.13
2022-10-12T01:23:53.257Z,3.10
2022-10-12T01:27:01.352Z,3.00
2022-10-12T01:30:10.902Z,2.63
2022-10-12T01:33:24.433Z,2.97
2022-10-12T01:36:18.837Z,2.97
2022-10-12T01:39:14.941Z,3.07
2022-10-12T01:42:07.066Z,3.00
2022-10-12T01:45:02.205Z,2.70
2022-10-12T01:47:51.921Z,3.07
2022-10-12T01:50:47.549Z,3.03
2022-10-12T01:53:41.897Z,2.50
2022-10-12T01:56:35.605Z,3.00
2022-10-12T01:59:31.990Z,3.23
2022-10-12T02:02:28.621Z,2.93
2022-10-12T02:05:24.298Z,2.70
2022-10-12T02:08:18.545Z,2.60
2022-10-12T02:11:09.569Z,2.50
2022-10-12T02:14:02.865Z,2.50
2022-10-12T02:16:52.620Z,2.70
2022-10-12T02:19:44.326Z,2.67
2022-10-12T02:22:34.998Z,2.60
2022-10-12T02:25:25.166Z,2.83
2022-10-12T02:28:16.203Z,2.53
2022-10-12T02:31:09.906Z,2.77
2022-10-12T02:34:01.858Z,2.60
2022-10-12T02:36:56.286Z,3.37
2022-10-12T02:39:48.586Z,3.20
2022-10-12T02:43:05.684Z,3.77
2022-10-12T02:45:48.872Z,3.10
2022-10-12T02:48:38.327Z,3.70
2022-10-12T02:51:27.095Z,3.03
2022-10-12T02:54:15.003Z,3.13
2022-10-12T02:57:01.819Z,3.20
2022-10-12T02:59:48.659Z,3.37
2022-10-12T03:02:35.755Z,2.90
2022-10-12T03:05:22.595Z,3.30
2022-10-12T03:08:09.540Z,2.90
2022-10-12T03:11:01.899Z,3.13
2022-10-12T03:13:52.163Z,3.33
2022-10-12T03:16:38.988Z,3.33
2022-10-12T03:19:25.803Z,3.33
2022-10-12T03:22:12.683Z,3.47
2022-10-12T03:24:59.632Z,4.37
2022-10-12T03:27:47.099Z,3.00
2022-10-12T03:30:33.935Z,3.03
2022-10-12T03:33:21.162Z,3.47
2022-10-12T03:36:09.183Z,4.23
2022-10-12T03:38:56.120Z,3.70
2022-10-12T03:41:42.950Z,3.77
2022-10-12T03:44:30.404Z,3.67
2022-10-12T03:47:17.284Z,3.77
2022-10-12T03:50:04.858Z,3.90
2022-10-12T03:52:51.710Z,3.33
2022-10-12T03:55:38.582Z,3.80
2022-10-12T03:58:25.452Z,3.30
2022-10-12T04:01:12.966Z,3.50
2022-10-12T04:03:59.898Z,3.77
2022-10-12T04:06:46.716Z,3.33
2022-10-12T04:09:33.554Z,4.20
2022-10-12T04:12:20.345Z,3.77
2022-10-12T04:15:09.216Z,4.00
2022-10-12T04:17:56.681Z,3.43
2022-10-12T04:20:46.269Z,3.40
2022-10-12T04:23:33.121Z,3.83
2022-10-12T04:26:19.991Z,3.67
2022-10-12T04:29:06.858Z,3.80
2022-10-12T04:31:53.789Z,3.63
2022-10-12T04:34:41.259Z,4.00
2022-10-12T04:37:28.263Z,3.80
2022-10-12T04:40:15.294Z,4.13
2022-10-12T04:43:02.127Z,3.60
2022-10-12T04:45:54.276Z,3.70
2022-10-12T04:48:41.114Z,3.60
2022-10-12T04:51:28.647Z,3.50
2022-10-12T04:54:15.571Z,3.80
2022-10-12T04:57:02.410Z,3.70
2022-10-12T04:59:49.208Z,4.07
2022-10-12T05:02:36.055Z,3.67
2022-10-12T05:05:22.938Z,3.90
2022-10-12T05:08:11.310Z,3.67
2022-10-12T05:10:58.530Z,3.27
2022-10-12T05:13:45.362Z,3.67
2022-10-12T05:16:32.198Z,3.90
2022-10-12T05:19:19.107Z,4.13
2022-10-12T05:22:05.937Z,3.90
2022-10-12T05:24:54.003Z,3.87
2022-10-12T05:27:41.362Z,4.00
2022-10-12T05:30:28.290Z,4.00
2022-10-12T05:33:15.107Z,4.40
2022-10-12T05:36:02.060Z,4.43
2022-10-12T05:38:48.869Z,4.53
2022-10-12T05:41:36.327Z,4.57
2022-10-12T05:44:23.187Z,4.30
2022-10-12T05:47:10.028Z,4.00
2022-10-12T05:49:56.925Z,4.13
2022-10-12T05:52:44.448Z,3.80
2022-10-12T05:55:31.367Z,4.10
2022-10-12T05:58:18.859Z,3.97
2022-10-12T06:01:07.360Z,4.40
2022-10-12T06:03:54.213Z,3.93
2022-10-12T06:06:41.248Z,4.10
2022-10-12T06:09:28.084Z,4.40
2022-10-12T06:12:15.505Z,4.40
2022-10-12T06:15:03.228Z,4.57
2022-10-12T06:17:50.931Z,4.40
2022-10-12T06:20:37.763Z,4.57
2022-10-12T06:23:24.676Z,4.83
2022-10-12T06:26:11.636Z,4.30
2022-10-12T06:28:59.852Z,4.47
2022-10-12T06:31:51.455Z,5.23
2022-10-12T06:34:38.698Z,4.93
2022-10-12T06:37:48.603Z,4.77
2022-10-12T06:40:32.376Z,5.23
2022-10-12T06:43:19.300Z,5.50
2022-10-12T06:46:06.295Z,5.80
2022-10-12T06:48:53.784Z,5.43
2022-10-12T06:51:40.629Z,4.87
2022-10-12T06:54:27.464Z,5.03
2022-10-12T06:57:14.264Z,5.70
2022-10-12T07:00:01.136Z,5.43
2022-10-12T07:02:49.288Z,5.47
2022-10-12T07:05:36.730Z,6.17
2022-10-12T07:08:23.617Z,5.97
2022-10-12T07:11:12.289Z,6.30
2022-10-12T07:13:59.121Z,7.03
2022-10-12T07:16:46.357Z,7.30
2022-10-12T07:19:33.178Z,6.73
2022-10-12T07:22:20.662Z,7.60
2022-10-12T07:25:08.409Z,7.57
2022-10-12T07:27:55.461Z,6.73
2022-10-12T07:30:42.403Z,7.93
2022-10-12T07:33:33.498Z,8.03
2022-10-12T07:36:21.929Z,8.00
2022-10-12T07:39:09.759Z,7.17
2022-10-12T07:41:56.712Z,7.90
2022-10-12T07:44:43.523Z,7.40
2022-10-12T07:47:30.356Z,7.00
2022-10-12T07:50:17.252Z,6.73
2022-10-12T07:53:04.124Z,17.50
2022-10-12T07:55:51.643Z,7.87
2022-10-12T07:58:38.489Z,8.90
2022-10-12T08:01:27.534Z,7.07
2022-10-12T08:04:14.477Z,7.80
2022-10-12T08:07:01.313Z,7.90
2022-10-12T08:09:48.688Z,9.10
2022-10-12T08:12:36.166Z,8.77
2022-10-12T08:15:23.058Z,6.10
2022-10-12T08:18:09.938Z,6.60
2022-10-12T08:20:56.954Z,6.70
2022-10-12T08:23:44.370Z,7.40
2022-10-12T08:26:32.386Z,8.23
2022-10-12T08:29:19.893Z,9.30
2022-10-12T08:32:07.000Z,8.30
2022-10-12T08:34:54.046Z,7.07
2022-10-12T08:37:41.086Z,7.60
2022-10-12T08:40:31.314Z,7.10
2022-10-12T08:43:26.998Z,7.07
2022-10-12T08:46:18.875Z,7.73
2022-10-12T08:49:12.058Z,6.93
2022-10-12T08:52:03.590Z,6.00
2022-10-12T08:54:50.538Z,6.00
2022-10-12T08:57:38.118Z,7.30
2022-10-12T09:00:25.253Z,7.10
2022-10-12T09:03:20.715Z,8.33
2022-10-12T09:06:13.594Z,7.30
2022-10-12T09:09:08.618Z,12.77
2022-10-12T09:12:12.362Z,9.70
2022-10-12T09:15:05.307Z,7.20
2022-10-12T09:17:54.923Z,6.97
2022-10-12T09:20:46.860Z,8.30
2022-10-12T09:23:38.014Z,8.77
2022-10-12T09:26:33.089Z,10.70
2022-10-12T09:29:25.158Z,9.03
2022-10-12T09:32:26.890Z,9.57
2022-10-12T09:35:14.517Z,7.80
2022-10-12T09:38:02.581Z,8.80
2022-10-12T09:40:49.602Z,6.93
2022-10-12T09:43:36.527Z,10.93
2022-10-12T09:46:33.402Z,7.90
2022-10-12T09:49:20.246Z,6.97
2022-10-12T09:52:07.638Z,7.73
2022-10-12T09:55:02.412Z,10.80
2022-10-12T09:57:55.057Z,9.37
2022-10-12T10:00:41.920Z,14.67
2022-10-12T10:03:31.408Z,6.80
2022-10-12T10:06:24.254Z,7.33
2022-10-12T10:09:28.931Z,13.70
2022-10-12T10:12:23.478Z,10.93
2022-10-12T10:15:19.954Z,7.10
2022-10-12T10:18:20.302Z,7.23
2022-10-12T10:21:09.670Z,6.57
2022-10-12T10:23:58.417Z,7.40
2022-10-12T10:26:54.307Z,7.53
2022-10-12T10:29:42.954Z,6.80
2022-10-12T10:32:30.798Z,6.73
2022-10-12T10:35:20.198Z,7.57
2022-10-12T10:38:15.090Z,6.67
2022-10-12T10:41:05.779Z,7.47
2022-10-12T10:43:52.782Z,7.60
2022-10-12T10:46:40.311Z,8.00
2022-10-12T10:49:37.822Z,7.20
2022-10-12T10:52:27.786Z,7.43
2022-10-12T10:55:18.498Z,7.53
2022-10-12T10:58:15.880Z,7.80
2022-10-12T11:01:14.145Z,7.43
2022-10-12T11:04:06.699Z,7.73
2022-10-12T11:06:56.371Z,7.40
2022-10-12T11:09:47.104Z,7.23
2022-10-12T11:12:40.006Z,7.50
2022-10-12T11:15:33.726Z,6.83
2022-10-12T11:18:26.119Z,6.87
2022-10-12T11:21:20.387Z,6.60
2022-10-12T11:24:12.792Z,6.80
2022-10-12T11:27:05.236Z,6.90
2022-10-12T11:30:08.336Z,6.70
2022-10-12T11:33:02.744Z,6.93
2022-10-12T11:35:50.649Z,7.17
2022-10-12T11:38:41.692Z,6.73
2022-10-12T11:41:35.990Z,7.37
2022-10-12T11:44:30.763Z,7.35
2022-10-12T11:47:23.588Z,6.88
2022-10-12T11:50:24.045Z,6.32
2022-10-12T11:53:19.051Z,6.70
2022-10-12T11:56:14.565Z,6.10
2022-10-12T11:59:05.025Z,5.65
2022-10-12T12:02:05.053Z,4.93
2022-10-12T12:04:52.714Z,4.57
2022-10-12T12:07:43.754Z,5.55
2022-10-12T12:10:53.703Z,4.83
2022-10-12T12:13:41.217Z,5.07
2022-10-12T12:16:31.559Z,5.63
2022-10-12T12:19:36.989Z,4.47
2022-10-12T12:22:30.020Z,4.90
2022-10-12T12:25:31.591Z,4.35
2022-10-12T12:28:21.603Z,4.70
2022-10-12T12:31:14.010Z,5.00
2022-10-12T12:34:04.950Z,5.00
2022-10-12T12:36:52.217Z,4.82
2022-10-12T12:39:42.030Z,4.72
2022-10-12T12:42:31.299Z,5.07
2022-10-12T12:45:40.756Z,5.28
2022-10-12T12:48:56.592Z,5.03
2022-10-12T12:51:44.335Z,5.23
2022-10-12T12:54:31.955Z,6.00
2022-10-12T12:58:00.960Z,6.80
2022-10-12T13:00:58.807Z,6.20
2022-10-12T13:04:09.124Z,6.40
2022-10-12T13:07:35.764Z,5.15
2022-10-12T13:10:36.888Z,6.88
2022-10-12T13:13:43.388Z,5.38
2022-10-12T13:20:05.648Z,7.17
2022-10-12T13:22:54.769Z,6.57
2022-10-12T13:25:44.805Z,6.63
2022-10-12T13:28:36.659Z,6.97
2022-10-12T13:31:31.183Z,6.43
2022-10-12T13:34:23.267Z,6.43
2022-10-12T13:37:13.250Z,6.40
2022-10-12T13:40:00.131Z,5.78
2022-10-12T13:42:47.072Z,6.18
2022-10-12T13:45:33.924Z,5.63
2022-10-12T13:48:46.436Z,6.13
2022-10-12T13:51:31.031Z,6.05
2022-10-12T13:54:21.282Z,5.93
2022-10-12T13:57:18.036Z,6.10
2022-10-12T14:00:09.607Z,5.57
2022-10-12T14:02:58.324Z,5.60
2022-10-12T14:05:45.589Z,5.00
2022-10-12T14:08:34.320Z,4.97
2022-10-12T14:11:22.213Z,5.15
2022-10-12T14:14:18.573Z,5.10
2022-10-12T14:17:06.195Z,5.10
2022-10-12T14:19:54.467Z,4.80
2022-10-12T14:22:46.751Z,4.68
2022-10-12T14:25:34.127Z,4.45
2022-10-12T14:28:28.471Z,4.72
2022-10-12T14:31:16.190Z,4.90
2022-10-12T14:34:37.693Z,4.78
2022-10-12T14:37:27.977Z,4.80
2022-10-12T14:40:27.901Z,4.28
2022-10-12T14:43:23.321Z,4.53
2022-10-12T14:46:10.210Z,4.13
2022-10-12T14:48:57.123Z,3.30
2022-10-12T14:51:44.449Z,2.72
2022-10-12T14:54:31.357Z,3.10
2022-10-12T14:57:19.351Z,3.53
2022-10-12T15:00:08.347Z,3.33
2022-10-12T15:02:55.594Z,3.45
2022-10-12T15:05:42.431Z,3.15
2022-10-12T15:08:29.260Z,3.05
2022-10-12T15:11:16.131Z,3.50
2022-10-12T15:14:02.994Z,3.42
2022-10-12T15:16:50.550Z,3.13
2022-10-12T15:19:37.590Z,3.00
2022-10-12T15:22:25.743Z,3.35
2022-10-12T15:25:18.247Z,3.50
2022-10-12T15:28:05.551Z,3.13
2022-10-12T15:33:59.889Z,3.40
2022-10-12T15:36:46.829Z,3.27
2022-10-12T15:39:33.752Z,3.43
2022-10-12T15:42:20.573Z,3.70
2022-10-12T15:45:15.453Z,3.33
2022-10-12T15:48:05.201Z,2.93
2022-10-12T15:50:52.661Z,3.60
2022-10-12T15:53:39.497Z,3.80
2022-10-12T15:56:26.838Z,3.73
2022-10-12T15:59:13.677Z,3.57
2022-10-12T16:02:00.549Z,3.63
2022-10-12T16:04:47.414Z,3.20
2022-10-12T16:07:34.906Z,3.50
2022-10-12T16:10:25.470Z,3.80
2022-10-12T16:13:12.926Z,3.47
2022-10-12T16:16:00.041Z,3.30
2022-10-12T16:18:46.902Z,3.37
2022-10-12T16:21:33.726Z,3.40
2022-10-12T16:24:21.225Z,3.50
2022-10-12T16:27:08.071Z,3.50
2022-10-12T16:29:55.565Z,3.63
2022-10-12T16:32:42.525Z,3.57
2022-10-12T16:35:29.507Z,3.63
2022-10-12T16:38:19.018Z,3.17
2022-10-12T16:41:11.006Z,3.00
2022-10-12T16:43:57.822Z,2.90
2022-10-12T16:46:44.703Z,3.73
2022-10-12T16:49:31.559Z,3.63
2022-10-12T16:52:18.943Z,3.90
2022-10-12T16:55:06.678Z,3.80
2022-10-12T16:57:54.183Z,3.60
2022-10-12T17:00:42.459Z,3.60
2022-10-12T17:03:29.368Z,3.77
2022-10-12T17:06:16.196Z,4.07
2022-10-12T17:09:04.974Z,3.83
2022-10-12T17:11:51.857Z,4.00
2022-10-12T17:14:39.572Z,4.43
2022-10-12T17:17:26.549Z,4.90
2022-10-12T17:20:13.404Z,4.57
2022-10-12T17:23:00.267Z,4.70
2022-10-12T17:25:48.335Z,4.60
2022-10-12T17:28:36.526Z,4.23
2022-10-12T17:31:24.058Z,4.30
2022-10-12T17:34:17.737Z,4.23
2022-10-12T17:37:05.222Z,4.63
2022-10-12T17:39:52.395Z,4.30
2022-10-12T17:42:39.286Z,4.20
2022-10-12T17:45:26.223Z,4.03
2022-10-12T17:48:15.247Z,3.87
2022-10-12T17:51:09.071Z,4.30
2022-10-12T17:53:56.284Z,4.20
2022-10-12T17:56:43.619Z,4.47
2022-10-12T17:59:30.458Z,4.27
2022-10-12T18:02:17.315Z,3.80
2022-10-12T18:05:05.450Z,4.07
2022-10-12T18:07:52.357Z,3.90
2022-10-12T18:10:39.811Z,3.90
2022-10-12T18:13:27.051Z,4.13
2022-10-12T18:16:15.792Z,4.33
2022-10-12T18:19:04.363Z,4.20
2022-10-12T18:21:51.867Z,4.30
2022-10-12T18:24:39.330Z,4.40
2022-10-12T18:27:26.158Z,3.97
2022-10-12T18:30:13.320Z,4.60
2022-10-12T18:33:00.377Z,4.33
2022-10-12T18:35:51.401Z,4.13
2022-10-12T18:38:39.244Z,5.00
2022-10-12T18:41:26.156Z,4.03
2022-10-12T18:44:14.229Z,4.63
2022-10-12T18:47:01.069Z,4.20
2022-10-12T18:49:49.783Z,4.20
2022-10-12T18:52:36.637Z,4.30
2022-10-12T18:55:24.470Z,4.40
2022-10-12T18:58:11.357Z,4.17
2022-10-12T19:00:58.479Z,4.37
2022-10-12T19:03:45.590Z,4.20
2022-10-12T19:06:35.843Z,4.73
2022-10-12T19:09:23.082Z,4.50
2022-10-12T19:12:11.977Z,5.37
2022-10-12T19:14:58.822Z,4.70
2022-10-12T19:17:45.693Z,4.80
2022-10-12T19:20:36.174Z,5.10
2022-10-12T19:23:23.037Z,5.30
2022-10-12T19:26:12.557Z,5.20
2022-10-12T19:29:01.071Z,5.33
2022-10-12T19:31:49.656Z,5.73
2022-10-12T19:34:36.588Z,5.43
2022-10-12T19:37:23.461Z,5.60
2022-10-12T19:40:13.442Z,6.23
2022-10-12T19:43:00.410Z,5.97
2022-10-12T19:45:49.858Z,6.40
2022-10-12T19:48:37.975Z,6.97
2022-10-12T19:51:26.469Z,6.50
2022-10-12T19:54:14.545Z,6.67
2022-10-12T19:57:01.426Z,6.60
2022-10-12T19:59:48.257Z,6.63
2022-10-12T20:02:35.978Z,6.50
2022-10-12T20:05:22.844Z,7.00
2022-10-12T20:08:09.676Z,6.27
2022-10-12T20:10:56.543Z,5.77
2022-10-12T20:13:43.654Z,5.30
2022-10-12T20:16:34.785Z,6.00
2022-10-12T20:19:22.786Z,5.43
2022-10-12T20:22:09.639Z,5.90
2022-10-12T20:24:56.523Z,5.13
2022-10-12T20:27:43.391Z,5.47
2022-10-12T20:30:30.235Z,5.67
2022-10-12T20:33:17.087Z,5.33
2022-10-12T20:36:08.307Z,5.20
2022-10-12T20:38:56.380Z,6.00
2022-10-12T20:41:43.235Z,5.83
2022-10-12T20:44:30.060Z,5.83
2022-10-12T20:47:17.782Z,5.67
2022-10-12T20:50:05.736Z,6.23
2022-10-12T20:52:53.199Z,6.00
2022-10-12T20:55:40.086Z,5.33
2022-10-12T20:58:28.137Z,6.40
2022-10-12T21:01:16.878Z,6.43
2022-10-12T21:04:03.883Z,7.10
2022-10-12T21:06:50.719Z,7.47
2022-10-12T21:09:38.427Z,7.00
2022-10-12T21:12:25.293Z,7.57
2022-10-12T21:15:12.148Z,7.70
2022-10-12T21:17:58.984Z,7.50
2022-10-12T21:20:54.020Z,7.73
2022-10-12T21:23:41.865Z,7.03
2022-10-12T21:26:30.779Z,8.43
2022-10-12T21:29:18.264Z,8.47
2022-10-12T21:32:05.093Z,7.13
2022-10-12T21:34:52.732Z,7.87
2022-10-12T21:37:39.556Z,8.63
2022-10-12T21:40:26.376Z,8.23
2022-10-12T21:43:13.860Z,8.17
2022-10-12T21:46:04.476Z,8.77
2022-10-12T21:48:51.857Z,8.80
2022-10-12T21:51:38.749Z,8.87
2022-10-12T21:54:25.580Z,8.87
2022-10-12T21:57:12.421Z,9.73
2022-10-12T21:59:59.916Z,9.23
2022-10-12T22:02:46.735Z,9.03
2022-10-12T22:05:38.393Z,8.57
2022-10-12T22:08:25.717Z,9.07
2022-10-12T22:11:13.044Z,9.53
2022-10-12T22:14:02.326Z,9.57
2022-10-12T22:16:49.805Z,10.10
2022-10-12T22:19:37.105Z,8.57
2022-10-12T22:22:23.961Z,9.20
2022-10-12T22:25:10.790Z,9.20
2022-10-12T22:27:57.638Z,9.30
2022-10-12T22:30:44.478Z,9.87
2022-10-12T22:33:31.926Z,9.90
2022-10-12T22:36:19.002Z,9.30
2022-10-12T22:39:05.851Z,9.83
2022-10-12T22:41:52.714Z,8.70
2022-10-12T22:44:39.550Z,8.80
2022-10-12T22:47:26.381Z,9.17
2022-10-12T22:50:13.998Z,9.37
2022-10-12T22:53:00.811Z,9.43
2022-10-12T22:55:52.462Z,9.97
2022-10-12T22:58:39.310Z,8.93
2022-10-12T23:01:27.326Z,9.47
2022-10-12T23:04:14.162Z,9.30
2022-10-12T23:07:01.612Z,10.17
2022-10-12T23:09:48.818Z,10.00
2022-10-12T23:12:35.682Z,9.27
2022-10-12T23:15:22.527Z,9.57
2022-10-12T23:18:10.475Z,8.67
2022-10-12T23:20:58.183Z,9.10
2022-10-12T23:23:45.978Z,9.00
2022-10-12T23:26:33.615Z,9.33
2022-10-12T23:29:20.462Z,8.73
2022-10-12T23:32:07.291Z,9.33
2022-10-12T23:34:54.106Z,9.67
2022-10-12T23:37:44.171Z,8.83
2022-10-12T23:40:34.460Z,8.70
2022-10-12T23:43:25.967Z,9.37
2022-10-12T23:46:15.051Z,8.40
2022-10-12T23:49:01.888Z,9.00
2022-10-12T23:51:48.715Z,9.37
2022-10-12T23:54:36.935Z,8.87
2022-10-12T23:57:45.617Z,9.27
